sensor_id;sensor_type;location;lat;lon;timestamp;P1;durP1;ratioP1;P2;durP2;ratioP2
20044;SDS011;10183;47.808;9.476;2024-02-14T00:00:00;23.80;;;21.23;;
20044;SDS011;10183;47.808;9.476;2024-02-14T00:02:26;24.27;;;21.60;;
20044;SDS011;10183;47.808;9.476;2024-02-14T00:04:52;24.40;;;21.90;;
20044;SDS011;10183;47.808;9.476;2024-02-14T00:07:19;24.33;;;21.73;;
20044;SDS011;10183;47.808;9.476;2024-02-14T00:09:45;24.47;;;21.90;;
20044;SDS011;10183;47.808;9.476;2024-02-14T00:12:11;24.83;;;22.37;;
20044;SDS011;10183;47.808;9.476;2024-02-14T00:14:37;25.60;;;23.07;;
20044;SDS011;10183;47.808;9.476;2024-02-14T00:17:03;25.97;;;23.20;;
20044;SDS011;10183;47.808;9.476;2024-02-14T00:19:30;33.13;;;22.60;;
20044;SDS011;10183;47.808;9.476;2024-02-14T00:21:56;26.77;;;22.87;;
20044;SDS011;10183;47.808;9.476;2024-02-14T00:24:22;26.13;;;22.50;;
20044;SDS011;10183;47.808;9.476;2024-02-14T00:26:53;25.90;;;23.07;;
20044;SDS011;10183;47.808;9.476;2024-02-14T00:29:20;25.53;;;22.87;;
20044;SDS011;10183;47.808;9.476;2024-02-14T00:31:48;24.87;;;22.47;;
20044;SDS011;10183;47.808;9.476;2024-02-14T00:34:13;25.23;;;22.20;;
20044;SDS011;10183;47.808;9.476;2024-02-14T00:36:39;25.23;;;22.50;;
20044;SDS011;10183;47.808;9.476;2024-02-14T00:39:05;24.10;;;21.57;;
20044;SDS011;10183;47.808;9.476;2024-02-14T00:41:34;25.30;;;22.60;;
20044;SDS011;10183;47.808;9.476;2024-02-14T00:44:01;24.47;;;22.07;;
20044;SDS011;10183;47.808;9.476;2024-02-14T00:46:28;25.00;;;21.50;;
20044;SDS011;10183;47.808;9.476;2024-02-14T00:48:54;26.50;;;22.10;;
20044;SDS011;10183;47.808;9.476;2024-02-14T00:51:21;24.00;;;21.50;;
20044;SDS011;10183;47.808;9.476;2024-02-14T00:53:46;24.80;;;22.33;;
20044;SDS011;10183;47.808;9.476;2024-02-14T00:56:12;24.77;;;22.37;;
20044;SDS011;10183;47.808;9.476;2024-02-14T00:58:38;24.60;;;21.87;;
20044;SDS011;10183;47.808;9.476;2024-02-14T01:01:05;25.27;;;22.60;;
20044;SDS011;10183;47.808;9.476;2024-02-14T01:03:31;24.90;;;22.40;;
20044;SDS011;10183;47.808;9.476;2024-02-14T01:05:57;26.27;;;23.67;;
20044;SDS011;10183;47.808;9.476;2024-02-14T01:08:23;25.37;;;22.73;;
20044;SDS011;10183;47.808;9.476;2024-02-14T01:10:49;24.97;;;22.30;;
20044;SDS011;10183;47.808;9.476;2024-02-14T01:13:16;25.40;;;22.77;;
20044;SDS011;10183;47.808;9.476;2024-02-14T01:15:42;25.07;;;22.47;;
20044;SDS011;10183;47.808;9.476;2024-02-14T01:18:08;26.53;;;22.63;;
20044;SDS011;10183;47.808;9.476;2024-02-14T01:20:35;26.07;;;23.17;;
20044;SDS011;10183;47.808;9.476;2024-02-14T01:23:02;24.87;;;22.43;;
20044;SDS011;10183;47.808;9.476;2024-02-14T01:25:28;26.03;;;23.27;;
20044;SDS011;10183;47.808;9.476;2024-02-14T01:27:54;25.00;;;22.20;;
20044;SDS011;10183;47.808;9.476;2024-02-14T01:30:20;24.33;;;21.93;;
20044;SDS011;10183;47.808;9.476;2024-02-14T01:32:47;24.70;;;22.20;;
20044;SDS011;10183;47.808;9.476;2024-02-14T01:35:13;26.97;;;22.50;;
20044;SDS011;10183;47.808;9.476;2024-02-14T01:37:39;24.80;;;22.43;;
20044;SDS011;10183;47.808;9.476;2024-02-14T01:40:05;23.57;;;21.27;;
20044;SDS011;10183;47.808;9.476;2024-02-14T01:42:32;23.70;;;21.30;;
20044;SDS011;10183;47.808;9.476;2024-02-14T01:44:58;24.27;;;21.67;;
20044;SDS011;10183;47.808;9.476;2024-02-14T01:47:24;23.57;;;21.17;;
20044;SDS011;10183;47.808;9.476;2024-02-14T01:49:51;23.87;;;21.50;;
20044;SDS011;10183;47.808;9.476;2024-02-14T01:52:17;25.17;;;22.67;;
20044;SDS011;10183;47.808;9.476;2024-02-14T01:54:43;25.63;;;23.03;;
20044;SDS011;10183;47.808;9.476;2024-02-14T01:57:09;24.60;;;22.10;;
20044;SDS011;10183;47.808;9.476;2024-02-14T01:59:36;24.63;;;22.33;;
20044;SDS011;10183;47.808;9.476;2024-02-14T02:02:02;25.10;;;22.43;;
20044;SDS011;10183;47.808;9.476;2024-02-14T02:04:31;25.33;;;22.53;;
20044;SDS011;10183;47.808;9.476;2024-02-14T02:06:57;24.40;;;21.80;;
20044;SDS011;10183;47.808;9.476;2024-02-14T02:09:23;25.17;;;22.53;;
20044;SDS011;10183;47.808;9.476;2024-02-14T02:11:50;25.90;;;23.20;;
20044;SDS011;10183;47.808;9.476;2024-02-14T02:14:16;25.30;;;22.70;;
20044;SDS011;10183;47.808;9.476;2024-02-14T02:16:43;28.30;;;23.40;;
20044;SDS011;10183;47.808;9.476;2024-02-14T02:19:09;25.73;;;22.50;;
20044;SDS011;10183;47.808;9.476;2024-02-14T02:21:35;25.20;;;22.83;;
20044;SDS011;10183;47.808;9.476;2024-02-14T02:24:02;24.83;;;22.37;;
20044;SDS011;10183;47.808;9.476;2024-02-14T02:26:28;25.23;;;22.57;;
20044;SDS011;10183;47.808;9.476;2024-02-14T02:28:54;25.87;;;23.17;;
20044;SDS011;10183;47.808;9.476;2024-02-14T02:31:20;25.73;;;23.03;;
20044;SDS011;10183;47.808;9.476;2024-02-14T02:33:46;25.93;;;23.50;;
20044;SDS011;10183;47.808;9.476;2024-02-14T02:36:12;26.07;;;23.30;;
20044;SDS011;10183;47.808;9.476;2024-02-14T02:38:41;25.00;;;22.60;;
20044;SDS011;10183;47.808;9.476;2024-02-14T02:41:07;26.10;;;23.50;;
20044;SDS011;10183;47.808;9.476;2024-02-14T02:43:33;26.13;;;23.50;;
20044;SDS011;10183;47.808;9.476;2024-02-14T02:45:59;27.43;;;23.73;;
20044;SDS011;10183;47.808;9.476;2024-02-14T02:48:25;26.00;;;23.20;;
20044;SDS011;10183;47.808;9.476;2024-02-14T02:50:51;28.50;;;23.67;;
20044;SDS011;10183;47.808;9.476;2024-02-14T02:53:18;27.37;;;24.60;;
20044;SDS011;10183;47.808;9.476;2024-02-14T02:55:44;27.27;;;24.37;;
20044;SDS011;10183;47.808;9.476;2024-02-14T02:58:10;26.90;;;24.00;;
20044;SDS011;10183;47.808;9.476;2024-02-14T03:00:36;27.87;;;24.87;;
20044;SDS011;10183;47.808;9.476;2024-02-14T03:03:02;28.23;;;25.43;;
20044;SDS011;10183;47.808;9.476;2024-02-14T03:05:33;29.90;;;24.73;;
20044;SDS011;10183;47.808;9.476;2024-02-14T03:07:59;27.73;;;24.80;;
20044;SDS011;10183;47.808;9.476;2024-02-14T03:10:26;26.70;;;24.00;;
20044;SDS011;10183;47.808;9.476;2024-02-14T03:12:54;27.47;;;24.63;;
20044;SDS011;10183;47.808;9.476;2024-02-14T03:15:20;25.97;;;23.37;;
20044;SDS011;10183;47.808;9.476;2024-02-14T03:17:46;25.33;;;22.60;;
20044;SDS011;10183;47.808;9.476;2024-02-14T03:20:12;26.17;;;23.53;;
20044;SDS011;10183;47.808;9.476;2024-02-14T03:22:41;27.13;;;24.23;;
20044;SDS011;10183;47.808;9.476;2024-02-14T03:25:08;28.53;;;23.93;;
20044;SDS011;10183;47.808;9.476;2024-02-14T03:27:35;25.50;;;23.00;;
20044;SDS011;10183;47.808;9.476;2024-02-14T03:30:01;26.37;;;23.57;;
20044;SDS011;10183;47.808;9.476;2024-02-14T03:32:29;26.17;;;23.50;;
20044;SDS011;10183;47.808;9.476;2024-02-14T03:34:54;26.00;;;23.40;;
20044;SDS011;10183;47.808;9.476;2024-02-14T03:37:20;28.40;;;24.27;;
20044;SDS011;10183;47.808;9.476;2024-02-14T03:39:47;26.80;;;23.93;;
20044;SDS011;10183;47.808;9.476;2024-02-14T03:42:13;27.90;;;23.83;;
20044;SDS011;10183;47.808;9.476;2024-02-14T03:44:40;26.63;;;23.83;;
20044;SDS011;10183;47.808;9.476;2024-02-14T03:47:06;27.30;;;24.37;;
20044;SDS011;10183;47.808;9.476;2024-02-14T03:49:32;28.77;;;25.67;;
20044;SDS011;10183;47.808;9.476;2024-02-14T03:51:59;27.90;;;25.10;;
20044;SDS011;10183;47.808;9.476;2024-02-14T03:54:26;28.23;;;24.83;;
20044;SDS011;10183;47.808;9.476;2024-02-14T03:56:53;29.17;;;25.73;;
20044;SDS011;10183;47.808;9.476;2024-02-14T03:59:20;28.53;;;25.50;;
20044;SDS011;10183;47.808;9.476;2024-02-14T04:01:49;27.33;;;24.40;;
20044;SDS011;10183;47.808;9.476;2024-02-14T04:04:18;27.43;;;24.50;;
20044;SDS011;10183;47.808;9.476;2024-02-14T04:06:44;29.37;;;24.90;;
20044;SDS011;10183;47.808;9.476;2024-02-14T04:09:11;29.03;;;25.53;;
20044;SDS011;10183;47.808;9.476;2024-02-14T04:11:37;29.20;;;25.63;;
20044;SDS011;10183;47.808;9.476;2024-02-14T04:14:03;28.47;;;24.57;;
20044;SDS011;10183;47.808;9.476;2024-02-14T04:16:29;27.63;;;24.90;;
20044;SDS011;10183;47.808;9.476;2024-02-14T04:18:55;26.00;;;23.30;;
20044;SDS011;10183;47.808;9.476;2024-02-14T04:21:21;27.53;;;24.67;;
20044;SDS011;10183;47.808;9.476;2024-02-14T04:23:47;27.70;;;25.03;;
20044;SDS011;10183;47.808;9.476;2024-02-14T04:26:22;28.30;;;25.40;;
20044;SDS011;10183;47.808;9.476;2024-02-14T04:28:49;27.77;;;24.93;;
20044;SDS011;10183;47.808;9.476;2024-02-14T04:31:15;29.73;;;25.07;;
20044;SDS011;10183;47.808;9.476;2024-02-14T04:33:41;33.57;;;25.10;;
20044;SDS011;10183;47.808;9.476;2024-02-14T04:36:08;26.90;;;24.30;;
20044;SDS011;10183;47.808;9.476;2024-02-14T04:38:34;28.70;;;23.97;;
20044;SDS011;10183;47.808;9.476;2024-02-14T04:41:00;26.33;;;23.53;;
20044;SDS011;10183;47.808;9.476;2024-02-14T04:43:26;25.47;;;22.77;;
20044;SDS011;10183;47.808;9.476;2024-02-14T04:45:52;26.90;;;24.20;;
20044;SDS011;10183;47.808;9.476;2024-02-14T04:48:19;27.07;;;24.33;;
20044;SDS011;10183;47.808;9.476;2024-02-14T04:50:45;29.00;;;25.10;;
20044;SDS011;10183;47.808;9.476;2024-02-14T04:53:11;27.50;;;24.80;;
20044;SDS011;10183;47.808;9.476;2024-02-14T04:55:37;27.30;;;24.47;;
20044;SDS011;10183;47.808;9.476;2024-02-14T04:58:03;28.57;;;25.60;;
20044;SDS011;10183;47.808;9.476;2024-02-14T05:00:30;26.30;;;23.60;;
20044;SDS011;10183;47.808;9.476;2024-02-14T05:02:56;25.57;;;23.03;;
20044;SDS011;10183;47.808;9.476;2024-02-14T05:05:22;26.30;;;23.80;;
20044;SDS011;10183;47.808;9.476;2024-02-14T05:07:48;33.40;;;26.10;;
20044;SDS011;10183;47.808;9.476;2024-02-14T05:10:14;39.20;;;30.07;;
20044;SDS011;10183;47.808;9.476;2024-02-14T05:12:40;27.90;;;24.87;;
20044;SDS011;10183;47.808;9.476;2024-02-14T05:15:06;27.27;;;24.37;;
20044;SDS011;10183;47.808;9.476;2024-02-14T05:17:34;27.07;;;24.20;;
20044;SDS011;10183;47.808;9.476;2024-02-14T05:20:00;26.07;;;23.57;;
20044;SDS011;10183;47.808;9.476;2024-02-14T05:22:26;26.27;;;23.63;;
20044;SDS011;10183;47.808;9.476;2024-02-14T05:24:52;26.93;;;24.23;;
20044;SDS011;10183;47.808;9.476;2024-02-14T05:27:18;25.70;;;23.30;;
20044;SDS011;10183;47.808;9.476;2024-02-14T05:29:45;25.03;;;22.60;;
20044;SDS011;10183;47.808;9.476;2024-02-14T05:32:11;25.70;;;22.87;;
20044;SDS011;10183;47.808;9.476;2024-02-14T05:34:37;26.70;;;24.20;;
20044;SDS011;10183;47.808;9.476;2024-02-14T05:37:03;26.37;;;23.67;;
20044;SDS011;10183;47.808;9.476;2024-02-14T05:39:30;24.80;;;22.47;;
20044;SDS011;10183;47.808;9.476;2024-02-14T05:41:56;25.47;;;22.97;;
20044;SDS011;10183;47.808;9.476;2024-02-14T05:44:23;26.23;;;23.40;;
20044;SDS011;10183;47.808;9.476;2024-02-14T05:46:51;26.07;;;22.97;;
20044;SDS011;10183;47.808;9.476;2024-02-14T05:49:17;25.53;;;22.93;;
20044;SDS011;10183;47.808;9.476;2024-02-14T05:51:43;24.90;;;22.53;;
20044;SDS011;10183;47.808;9.476;2024-02-14T05:54:09;26.67;;;24.17;;
20044;SDS011;10183;47.808;9.476;2024-02-14T05:56:35;29.97;;;26.80;;
20044;SDS011;10183;47.808;9.476;2024-02-14T05:59:01;28.50;;;25.60;;
20044;SDS011;10183;47.808;9.476;2024-02-14T06:01:27;26.57;;;23.13;;
20044;SDS011;10183;47.808;9.476;2024-02-14T06:03:53;26.17;;;23.67;;
20044;SDS011;10183;47.808;9.476;2024-02-14T06:06:19;35.80;;;32.63;;
20044;SDS011;10183;47.808;9.476;2024-02-14T06:08:46;28.70;;;26.20;;
20044;SDS011;10183;47.808;9.476;2024-02-14T06:11:12;28.00;;;25.50;;
20044;SDS011;10183;47.808;9.476;2024-02-14T06:13:39;25.90;;;23.70;;
20044;SDS011;10183;47.808;9.476;2024-02-14T06:16:05;27.10;;;24.80;;
20044;SDS011;10183;47.808;9.476;2024-02-14T06:18:31;29.57;;;26.80;;
20044;SDS011;10183;47.808;9.476;2024-02-14T06:20:57;27.83;;;25.30;;
20044;SDS011;10183;47.808;9.476;2024-02-14T06:23:23;29.50;;;26.60;;
20044;SDS011;10183;47.808;9.476;2024-02-14T06:25:49;32.63;;;29.60;;
20044;SDS011;10183;47.808;9.476;2024-02-14T06:28:15;40.00;;;36.60;;
20044;SDS011;10183;47.808;9.476;2024-02-14T06:30:41;35.93;;;32.83;;
20044;SDS011;10183;47.808;9.476;2024-02-14T06:33:07;32.63;;;29.70;;
20044;SDS011;10183;47.808;9.476;2024-02-14T06:35:33;32.30;;;29.50;;
20044;SDS011;10183;47.808;9.476;2024-02-14T06:37:59;32.17;;;29.27;;
20044;SDS011;10183;47.808;9.476;2024-02-14T06:40:25;30.33;;;26.33;;
20044;SDS011;10183;47.808;9.476;2024-02-14T06:42:52;28.67;;;25.60;;
20044;SDS011;10183;47.808;9.476;2024-02-14T06:45:19;29.13;;;24.97;;
20044;SDS011;10183;47.808;9.476;2024-02-14T06:47:45;29.77;;;25.40;;
20044;SDS011;10183;47.808;9.476;2024-02-14T06:50:11;29.40;;;25.97;;
20044;SDS011;10183;47.808;9.476;2024-02-14T06:52:37;30.70;;;27.60;;
20044;SDS011;10183;47.808;9.476;2024-02-14T06:55:03;31.40;;;27.93;;
20044;SDS011;10183;47.808;9.476;2024-02-14T06:57:29;30.40;;;27.23;;
20044;SDS011;10183;47.808;9.476;2024-02-14T06:59:55;29.63;;;26.60;;
20044;SDS011;10183;47.808;9.476;2024-02-14T07:02:21;32.57;;;25.57;;
20044;SDS011;10183;47.808;9.476;2024-02-14T07:04:48;28.07;;;25.27;;
20044;SDS011;10183;47.808;9.476;2024-02-14T07:07:14;27.47;;;24.57;;
20044;SDS011;10183;47.808;9.476;2024-02-14T07:09:40;28.97;;;25.97;;
20044;SDS011;10183;47.808;9.476;2024-02-14T07:12:07;28.27;;;25.37;;
20044;SDS011;10183;47.808;9.476;2024-02-14T07:14:33;32.40;;;29.20;;
20044;SDS011;10183;47.808;9.476;2024-02-14T07:16:59;30.77;;;26.23;;
20044;SDS011;10183;47.808;9.476;2024-02-14T07:19:25;28.97;;;25.97;;
20044;SDS011;10183;47.808;9.476;2024-02-14T07:21:51;28.10;;;25.10;;
20044;SDS011;10183;47.808;9.476;2024-02-14T07:24:17;28.77;;;25.83;;
20044;SDS011;10183;47.808;9.476;2024-02-14T07:26:44;30.53;;;27.43;;
20044;SDS011;10183;47.808;9.476;2024-02-14T07:29:11;29.23;;;26.07;;
20044;SDS011;10183;47.808;9.476;2024-02-14T07:31:37;30.93;;;25.37;;
20044;SDS011;10183;47.808;9.476;2024-02-14T07:34:03;31.17;;;27.97;;
20044;SDS011;10183;47.808;9.476;2024-02-14T07:36:29;32.97;;;29.43;;
20044;SDS011;10183;47.808;9.476;2024-02-14T07:38:55;31.17;;;27.87;;
20044;SDS011;10183;47.808;9.476;2024-02-14T07:41:21;32.90;;;29.60;;
20044;SDS011;10183;47.808;9.476;2024-02-14T07:43:47;34.27;;;30.77;;
20044;SDS011;10183;47.808;9.476;2024-02-14T07:46:17;37.23;;;33.37;;
20044;SDS011;10183;47.808;9.476;2024-02-14T07:48:44;34.03;;;30.53;;
20044;SDS011;10183;47.808;9.476;2024-02-14T07:51:10;38.53;;;34.60;;
20044;SDS011;10183;47.808;9.476;2024-02-14T07:53:36;36.70;;;32.77;;
20044;SDS011;10183;47.808;9.476;2024-02-14T07:56:02;43.40;;;38.43;;
20044;SDS011;10183;47.808;9.476;2024-02-14T07:58:28;53.40;;;44.60;;
20044;SDS011;10183;47.808;9.476;2024-02-14T08:00:54;54.40;;;46.83;;
20044;SDS011;10183;47.808;9.476;2024-02-14T08:03:20;36.23;;;32.30;;
20044;SDS011;10183;47.808;9.476;2024-02-14T08:05:46;38.97;;;33.60;;
20044;SDS011;10183;47.808;9.476;2024-02-14T08:08:12;36.77;;;32.80;;
20044;SDS011;10183;47.808;9.476;2024-02-14T08:10:38;36.87;;;33.00;;
20044;SDS011;10183;47.808;9.476;2024-02-14T08:13:04;38.70;;;33.40;;
20044;SDS011;10183;47.808;9.476;2024-02-14T08:15:30;37.77;;;31.13;;
20044;SDS011;10183;47.808;9.476;2024-02-14T08:17:57;58.93;;;45.80;;
20044;SDS011;10183;47.808;9.476;2024-02-14T08:20:24;35.70;;;32.00;;
20044;SDS011;10183;47.808;9.476;2024-02-14T08:22:50;33.80;;;30.43;;
20044;SDS011;10183;47.808;9.476;2024-02-14T08:25:16;38.43;;;34.73;;
20044;SDS011;10183;47.808;9.476;2024-02-14T08:27:42;40.27;;;36.17;;
20044;SDS011;10183;47.808;9.476;2024-02-14T08:30:08;39.13;;;35.00;;
20044;SDS011;10183;47.808;9.476;2024-02-14T08:32:34;44.37;;;38.20;;
20044;SDS011;10183;47.808;9.476;2024-02-14T08:35:00;43.57;;;37.17;;
20044;SDS011;10183;47.808;9.476;2024-02-14T08:37:26;61.67;;;49.97;;
20044;SDS011;10183;47.808;9.476;2024-02-14T08:39:52;63.67;;;51.87;;
20044;SDS011;10183;47.808;9.476;2024-02-14T08:42:19;58.83;;;47.93;;
20044;SDS011;10183;47.808;9.476;2024-02-14T08:44:45;54.50;;;42.97;;
20044;SDS011;10183;47.808;9.476;2024-02-14T08:47:11;45.77;;;40.80;;
20044;SDS011;10183;47.808;9.476;2024-02-14T08:49:40;37.17;;;33.17;;
20044;SDS011;10183;47.808;9.476;2024-02-14T08:52:06;41.70;;;37.30;;
20044;SDS011;10183;47.808;9.476;2024-02-14T08:54:33;40.67;;;35.40;;
20044;SDS011;10183;47.808;9.476;2024-02-14T08:56:59;48.20;;;42.70;;
20044;SDS011;10183;47.808;9.476;2024-02-14T08:59:25;35.37;;;31.20;;
20044;SDS011;10183;47.808;9.476;2024-02-14T09:01:51;34.50;;;30.87;;
20044;SDS011;10183;47.808;9.476;2024-02-14T09:04:17;38.87;;;34.80;;
20044;SDS011;10183;47.808;9.476;2024-02-14T09:06:43;34.80;;;31.20;;
20044;SDS011;10183;47.808;9.476;2024-02-14T09:09:10;33.37;;;29.83;;
20044;SDS011;10183;47.808;9.476;2024-02-14T09:11:36;34.50;;;30.57;;
20044;SDS011;10183;47.808;9.476;2024-02-14T09:14:02;35.53;;;31.70;;
20044;SDS011;10183;47.808;9.476;2024-02-14T09:16:31;39.77;;;35.63;;
20044;SDS011;10183;47.808;9.476;2024-02-14T09:18:58;41.37;;;37.17;;
20044;SDS011;10183;47.808;9.476;2024-02-14T09:21:24;35.53;;;31.90;;
20044;SDS011;10183;47.808;9.476;2024-02-14T09:23:52;39.80;;;35.73;;
20044;SDS011;10183;47.808;9.476;2024-02-14T09:26:18;38.97;;;34.57;;
20044;SDS011;10183;47.808;9.476;2024-02-14T09:28:44;42.07;;;36.03;;
20044;SDS011;10183;47.808;9.476;2024-02-14T09:31:10;44.80;;;36.70;;
20044;SDS011;10183;47.808;9.476;2024-02-14T09:33:37;39.07;;;34.77;;
20044;SDS011;10183;47.808;9.476;2024-02-14T09:36:04;37.17;;;33.17;;
20044;SDS011;10183;47.808;9.476;2024-02-14T09:38:30;32.97;;;29.40;;
20044;SDS011;10183;47.808;9.476;2024-02-14T09:41:05;32.33;;;28.93;;
20044;SDS011;10183;47.808;9.476;2024-02-14T09:43:36;36.90;;;33.07;;
20044;SDS011;10183;47.808;9.476;2024-02-14T09:46:06;34.03;;;28.73;;
20044;SDS011;10183;47.808;9.476;2024-02-14T09:48:33;37.27;;;33.30;;
20044;SDS011;10183;47.808;9.476;2024-02-14T09:51:02;35.10;;;31.30;;
20044;SDS011;10183;47.808;9.476;2024-02-14T09:53:28;34.83;;;30.77;;
20044;SDS011;10183;47.808;9.476;2024-02-14T09:55:55;42.67;;;38.07;;
20044;SDS011;10183;47.808;9.476;2024-02-14T09:58:21;35.30;;;29.57;;
20044;SDS011;10183;47.808;9.476;2024-02-14T10:00:48;35.27;;;31.57;;
20044;SDS011;10183;47.808;9.476;2024-02-14T10:03:15;35.57;;;31.87;;
20044;SDS011;10183;47.808;9.476;2024-02-14T10:05:41;38.10;;;34.00;;
20044;SDS011;10183;47.808;9.476;2024-02-14T10:08:07;35.43;;;31.30;;
20044;SDS011;10183;47.808;9.476;2024-02-14T10:10:34;34.50;;;29.57;;
20044;SDS011;10183;47.808;9.476;2024-02-14T10:13:00;34.27;;;29.00;;
20044;SDS011;10183;47.808;9.476;2024-02-14T10:15:26;35.93;;;29.93;;
20044;SDS011;10183;47.808;9.476;2024-02-14T10:17:52;61.10;;;51.07;;
20044;SDS011;10183;47.808;9.476;2024-02-14T10:20:19;50.60;;;39.27;;
20044;SDS011;10183;47.808;9.476;2024-02-14T10:22:46;38.10;;;34.17;;
20044;SDS011;10183;47.808;9.476;2024-02-14T10:25:13;35.57;;;30.30;;
20044;SDS011;10183;47.808;9.476;2024-02-14T10:27:40;36.60;;;32.60;;
20044;SDS011;10183;47.808;9.476;2024-02-14T10:30:06;35.60;;;31.70;;
20044;SDS011;10183;47.808;9.476;2024-02-14T10:32:39;34.90;;;28.63;;
20044;SDS011;10183;47.808;9.476;2024-02-14T10:35:14;44.10;;;39.90;;
20044;SDS011;10183;47.808;9.476;2024-02-14T10:37:41;38.33;;;34.27;;
20044;SDS011;10183;47.808;9.476;2024-02-14T10:40:07;41.80;;;37.30;;
20044;SDS011;10183;47.808;9.476;2024-02-14T10:42:36;52.13;;;43.53;;
20044;SDS011;10183;47.808;9.476;2024-02-14T10:45:04;41.30;;;37.10;;
20044;SDS011;10183;47.808;9.476;2024-02-14T10:47:36;34.60;;;29.20;;
20044;SDS011;10183;47.808;9.476;2024-02-14T10:50:05;36.60;;;32.80;;
20044;SDS011;10183;47.808;9.476;2024-02-14T10:52:32;32.67;;;29.10;;
20044;SDS011;10183;47.808;9.476;2024-02-14T10:54:59;34.83;;;31.17;;
20044;SDS011;10183;47.808;9.476;2024-02-14T10:57:27;33.50;;;29.90;;
20044;SDS011;10183;47.808;9.476;2024-02-14T10:59:54;35.27;;;31.47;;
20044;SDS011;10183;47.808;9.476;2024-02-14T11:02:20;37.00;;;33.10;;
20044;SDS011;10183;47.808;9.476;2024-02-14T11:04:47;41.27;;;37.00;;
20044;SDS011;10183;47.808;9.476;2024-02-14T11:07:18;43.40;;;39.00;;
20044;SDS011;10183;47.808;9.476;2024-02-14T11:09:44;47.53;;;42.43;;
20044;SDS011;10183;47.808;9.476;2024-02-14T11:12:10;40.97;;;36.77;;
20044;SDS011;10183;47.808;9.476;2024-02-14T11:14:36;49.37;;;43.93;;
20044;SDS011;10183;47.808;9.476;2024-02-14T11:17:05;42.60;;;38.13;;
20044;SDS011;10183;47.808;9.476;2024-02-14T11:19:34;43.20;;;38.50;;
20044;SDS011;10183;47.808;9.476;2024-02-14T11:22:10;38.30;;;33.63;;
20044;SDS011;10183;47.808;9.476;2024-02-14T11:24:37;42.93;;;38.33;;
20044;SDS011;10183;47.808;9.476;2024-02-14T11:27:03;41.73;;;37.37;;
20044;SDS011;10183;47.808;9.476;2024-02-14T11:29:29;47.70;;;42.60;;
20044;SDS011;10183;47.808;9.476;2024-02-14T11:31:59;43.10;;;38.87;;
20044;SDS011;10183;47.808;9.476;2024-02-14T11:34:25;40.53;;;36.17;;
20044;SDS011;10183;47.808;9.476;2024-02-14T11:36:51;52.43;;;46.77;;
20044;SDS011;10183;47.808;9.476;2024-02-14T11:39:17;45.20;;;40.40;;
20044;SDS011;10183;47.808;9.476;2024-02-14T11:41:43;43.10;;;37.70;;
20044;SDS011;10183;47.808;9.476;2024-02-14T11:44:09;62.53;;;52.90;;
20044;SDS011;10183;47.808;9.476;2024-02-14T11:46:37;81.57;;;68.67;;
20044;SDS011;10183;47.808;9.476;2024-02-14T11:49:04;81.53;;;65.87;;
20044;SDS011;10183;47.808;9.476;2024-02-14T11:51:30;75.20;;;60.87;;
20044;SDS011;10183;47.808;9.476;2024-02-14T11:54:00;81.30;;;66.60;;
20044;SDS011;10183;47.808;9.476;2024-02-14T11:56:33;68.07;;;55.90;;
20044;SDS011;10183;47.808;9.476;2024-02-14T11:59:00;78.37;;;63.20;;
20044;SDS011;10183;47.808;9.476;2024-02-14T12:01:35;67.20;;;59.90;;
20044;SDS011;10183;47.808;9.476;2024-02-14T12:04:02;54.23;;;48.50;;
20044;SDS011;10183;47.808;9.476;2024-02-14T12:06:29;55.70;;;49.17;;
20044;SDS011;10183;47.808;9.476;2024-02-14T12:09:04;46.17;;;41.40;;
20044;SDS011;10183;47.808;9.476;2024-02-14T12:11:31;66.80;;;55.40;;
20044;SDS011;10183;47.808;9.476;2024-02-14T12:14:02;72.30;;;62.23;;
20044;SDS011;10183;47.808;9.476;2024-02-14T12:16:29;70.80;;;63.07;;
20044;SDS011;10183;47.808;9.476;2024-02-14T12:19:07;67.03;;;59.93;;
20044;SDS011;10183;47.808;9.476;2024-02-14T12:21:36;45.47;;;40.23;;
20044;SDS011;10183;47.808;9.476;2024-02-14T12:24:03;54.73;;;49.07;;
20044;SDS011;10183;47.808;9.476;2024-02-14T12:26:30;30.57;;;25.50;;
20044;SDS011;10183;47.808;9.476;2024-02-14T12:28:57;39.23;;;35.03;;
20044;SDS011;10183;47.808;9.476;2024-02-14T12:31:23;36.10;;;29.63;;
20044;SDS011;10183;47.808;9.476;2024-02-14T12:33:49;43.37;;;38.33;;
20044;SDS011;10183;47.808;9.476;2024-02-14T12:36:19;51.47;;;46.17;;
20044;SDS011;10183;47.808;9.476;2024-02-14T12:38:45;35.63;;;29.67;;
20044;SDS011;10183;47.808;9.476;2024-02-14T12:41:11;47.60;;;42.60;;
20044;SDS011;10183;47.808;9.476;2024-02-14T12:43:37;54.43;;;48.83;;
20044;SDS011;10183;47.808;9.476;2024-02-14T12:46:03;46.47;;;41.77;;
20044;SDS011;10183;47.808;9.476;2024-02-14T12:48:29;45.00;;;40.10;;
20044;SDS011;10183;47.808;9.476;2024-02-14T12:50:56;50.77;;;45.57;;
20044;SDS011;10183;47.808;9.476;2024-02-14T12:53:23;42.78;;;37.28;;
20044;SDS011;10183;47.808;9.476;2024-02-14T12:55:49;45.97;;;40.57;;
20044;SDS011;10183;47.808;9.476;2024-02-14T12:58:15;47.30;;;41.97;;
20044;SDS011;10183;47.808;9.476;2024-02-14T13:00:41;41.97;;;34.27;;
20044;SDS011;10183;47.808;9.476;2024-02-14T13:03:12;45.67;;;39.63;;
20044;SDS011;10183;47.808;9.476;2024-02-14T13:05:39;42.58;;;37.90;;
20044;SDS011;10183;47.808;9.476;2024-02-14T13:08:06;43.20;;;36.25;;
20044;SDS011;10183;47.808;9.476;2024-02-14T13:10:32;44.40;;;37.80;;
20044;SDS011;10183;47.808;9.476;2024-02-14T13:12:58;43.20;;;37.50;;
20044;SDS011;10183;47.808;9.476;2024-02-14T13:15:24;44.97;;;40.27;;
20044;SDS011;10183;47.808;9.476;2024-02-14T13:17:50;42.27;;;35.37;;
20044;SDS011;10183;47.808;9.476;2024-02-14T13:20:16;41.57;;;35.70;;
20044;SDS011;10183;47.808;9.476;2024-02-14T13:22:42;46.00;;;41.17;;
20044;SDS011;10183;47.808;9.476;2024-02-14T13:25:08;41.70;;;37.30;;
20044;SDS011;10183;47.808;9.476;2024-02-14T13:27:34;42.70;;;38.10;;
20044;SDS011;10183;47.808;9.476;2024-02-14T13:30:04;43.93;;;39.33;;
20044;SDS011;10183;47.808;9.476;2024-02-14T13:32:32;42.43;;;37.33;;
20044;SDS011;10183;47.808;9.476;2024-02-14T13:34:58;32.40;;;29.20;;
20044;SDS011;10183;47.808;9.476;2024-02-14T13:37:24;35.13;;;28.70;;
20044;SDS011;10183;47.808;9.476;2024-02-14T13:39:50;36.83;;;30.53;;
20044;SDS011;10183;47.808;9.476;2024-02-14T13:42:16;40.47;;;36.07;;
20044;SDS011;10183;47.808;9.476;2024-02-14T13:44:42;34.90;;;27.77;;
20044;SDS011;10183;47.808;9.476;2024-02-14T13:47:08;40.87;;;36.67;;
20044;SDS011;10183;47.808;9.476;2024-02-14T13:49:35;38.07;;;30.77;;
20044;SDS011;10183;47.808;9.476;2024-02-14T13:52:01;37.87;;;33.77;;
20044;SDS011;10183;47.808;9.476;2024-02-14T13:54:27;38.10;;;32.90;;
20044;SDS011;10183;47.808;9.476;2024-02-14T13:56:53;40.73;;;33.03;;
20044;SDS011;10183;47.808;9.476;2024-02-14T13:59:20;41.70;;;37.30;;
20044;SDS011;10183;47.808;9.476;2024-02-14T14:01:46;40.27;;;33.37;;
20044;SDS011;10183;47.808;9.476;2024-02-14T14:04:12;37.55;;;32.80;;
20044;SDS011;10183;47.808;9.476;2024-02-14T14:06:39;38.00;;;33.37;;
20044;SDS011;10183;47.808;9.476;2024-02-14T14:09:05;38.30;;;34.17;;
20044;SDS011;10183;47.808;9.476;2024-02-14T14:11:33;34.10;;;27.43;;
20044;SDS011;10183;47.808;9.476;2024-02-14T14:13:59;34.20;;;29.83;;
20044;SDS011;10183;47.808;9.476;2024-02-14T14:16:26;35.50;;;31.40;;